Terminal Aerodrome Forecast
Issued by NWS Jackson, MS

Home | Current Version | Previous Version | Text Only | Print | Product List | Glossary On
Versions: 1 2 3 4 5 6 7 8 9 10 11 12
000
FTUS44 KJAN 201700
TAFHBG
TAF
KHBG 201720Z 2018/2118 09008KT P6SM SCT030
     FM210000 00000KT P6SM SKC
     FM210900 00000KT 3SM BR SKC
     FM211330 VRB03KT P6SM FEW025=

USA.gov is the U.S. government's official web portal to all federal, state and local government web resources and services.